sensor_id;sensor_type;location;lat;lon;timestamp;temperature;humidity
2042;DHT22;1026;51.460;7.252;2023-03-30T00:01:27;11.50;92.70
2042;DHT22;1026;51.460;7.252;2023-03-30T00:03:52;11.50;92.70
2042;DHT22;1026;51.460;7.252;2023-03-30T00:06:19;11.40;92.70
2042;DHT22;1026;51.460;7.252;2023-03-30T00:08:49;11.50;92.80
2042;DHT22;1026;51.460;7.252;2023-03-30T00:11:18;11.50;92.80
2042;DHT22;1026;51.460;7.252;2023-03-30T00:13:48;11.50;92.70
2042;DHT22;1026;51.460;7.252;2023-03-30T00:16:15;11.50;92.80
2042;DHT22;1026;51.460;7.252;2023-03-30T00:18:42;11.50;92.70
2042;DHT22;1026;51.460;7.252;2023-03-30T00:21:10;11.40;92.70
2042;DHT22;1026;51.460;7.252;2023-03-30T00:23:37;11.40;92.60
2042;DHT22;1026;51.460;7.252;2023-03-30T00:26:04;11.40;92.70
2042;DHT22;1026;51.460;7.252;2023-03-30T00:28:30;11.40;92.70
2042;DHT22;1026;51.460;7.252;2023-03-30T00:30:56;11.40;92.70
2042;DHT22;1026;51.460;7.252;2023-03-30T00:33:22;11.40;92.70
2042;DHT22;1026;51.460;7.252;2023-03-30T00:35:52;11.30;92.70
2042;DHT22;1026;51.460;7.252;2023-03-30T00:38:18;11.40;92.70
2042;DHT22;1026;51.460;7.252;2023-03-30T00:40:50;11.40;92.70
2042;DHT22;1026;51.460;7.252;2023-03-30T00:43:17;11.40;92.70
2042;DHT22;1026;51.460;7.252;2023-03-30T00:45:42;11.40;92.70
2042;DHT22;1026;51.460;7.252;2023-03-30T00:48:10;11.40;92.70
2042;DHT22;1026;51.460;7.252;2023-03-30T00:50:45;11.40;92.60
2042;DHT22;1026;51.460;7.252;2023-03-30T00:53:21;11.40;92.70
2042;DHT22;1026;51.460;7.252;2023-03-30T00:55:49;11.30;92.60
2042;DHT22;1026;51.460;7.252;2023-03-30T00:58:17;11.30;92.60
2042;DHT22;1026;51.460;7.252;2023-03-30T01:00:44;11.40;92.70
2042;DHT22;1026;51.460;7.252;2023-03-30T01:03:25;11.40;92.60
2042;DHT22;1026;51.460;7.252;2023-03-30T01:05:53;11.30;92.60
2042;DHT22;1026;51.460;7.252;2023-03-30T01:08:20;11.40;92.60
2042;DHT22;1026;51.460;7.252;2023-03-30T01:10:49;11.40;92.60
2042;DHT22;1026;51.460;7.252;2023-03-30T01:13:15;11.40;92.60
2042;DHT22;1026;51.460;7.252;2023-03-30T01:15:53;11.30;92.50
2042;DHT22;1026;51.460;7.252;2023-03-30T01:18:31;11.30;92.60
2042;DHT22;1026;51.460;7.252;2023-03-30T01:21:13;11.30;92.60
2042;DHT22;1026;51.460;7.252;2023-03-30T01:26:22;11.30;92.50
2042;DHT22;1026;51.460;7.252;2023-03-30T01:28:58;11.30;92.60
2042;DHT22;1026;51.460;7.252;2023-03-30T01:31:33;11.20;92.50
2042;DHT22;1026;51.460;7.252;2023-03-30T01:39:56;11.40;92.50
2042;DHT22;1026;51.460;7.252;2023-03-30T01:45:39;11.40;92.50
2042;DHT22;1026;51.460;7.252;2023-03-30T01:50:42;11.30;92.40
2042;DHT22;1026;51.460;7.252;2023-03-30T01:53:17;11.30;92.40
2042;DHT22;1026;51.460;7.252;2023-03-30T01:55:54;11.30;92.40
2042;DHT22;1026;51.460;7.252;2023-03-30T01:58:28;11.30;92.40
2042;DHT22;1026;51.460;7.252;2023-03-30T02:00:56;11.40;92.50
2042;DHT22;1026;51.460;7.252;2023-03-30T02:03:27;11.30;92.40
2042;DHT22;1026;51.460;7.252;2023-03-30T02:05:58;11.40;92.50
2042;DHT22;1026;51.460;7.252;2023-03-30T02:08:30;11.40;92.50
2042;DHT22;1026;51.460;7.252;2023-03-30T02:10:57;11.30;92.50
2042;DHT22;1026;51.460;7.252;2023-03-30T02:13:26;11.30;92.40
2042;DHT22;1026;51.460;7.252;2023-03-30T02:16:03;11.40;92.50
2042;DHT22;1026;51.460;7.252;2023-03-30T02:18:31;11.40;92.50
2042;DHT22;1026;51.460;7.252;2023-03-30T02:20:59;11.40;92.50
2042;DHT22;1026;51.460;7.252;2023-03-30T02:23:34;11.40;92.50
2042;DHT22;1026;51.460;7.252;2023-03-30T02:26:01;11.40;92.50
2042;DHT22;1026;51.460;7.252;2023-03-30T02:28:27;11.40;92.50
2042;DHT22;1026;51.460;7.252;2023-03-30T02:30:53;11.40;92.40
2042;DHT22;1026;51.460;7.252;2023-03-30T02:33:24;11.30;92.40
2042;DHT22;1026;51.460;7.252;2023-03-30T02:39:56;11.40;92.50
2042;DHT22;1026;51.460;7.252;2023-03-30T02:44:24;11.30;92.40
2042;DHT22;1026;51.460;7.252;2023-03-30T02:49:40;11.30;92.40
2042;DHT22;1026;51.460;7.252;2023-03-30T02:52:51;11.30;92.40
2042;DHT22;1026;51.460;7.252;2023-03-30T02:56:00;11.40;92.40
2042;DHT22;1026;51.460;7.252;2023-03-30T03:01:55;11.30;92.30
2042;DHT22;1026;51.460;7.252;2023-03-30T03:04:23;11.40;92.40
2042;DHT22;1026;51.460;7.252;2023-03-30T03:06:53;11.40;92.40
2042;DHT22;1026;51.460;7.252;2023-03-30T03:09:20;11.40;92.50
2042;DHT22;1026;51.460;7.252;2023-03-30T03:11:50;11.50;92.50
2042;DHT22;1026;51.460;7.252;2023-03-30T03:14:16;11.50;92.50
2042;DHT22;1026;51.460;7.252;2023-03-30T03:16:42;11.50;92.50
2042;DHT22;1026;51.460;7.252;2023-03-30T03:19:14;11.40;92.40
2042;DHT22;1026;51.460;7.252;2023-03-30T03:21:40;11.40;92.40
2042;DHT22;1026;51.460;7.252;2023-03-30T03:24:06;11.30;92.40
2042;DHT22;1026;51.460;7.252;2023-03-30T03:26:32;11.40;92.50
2042;DHT22;1026;51.460;7.252;2023-03-30T03:29:01;11.50;92.50
2042;DHT22;1026;51.460;7.252;2023-03-30T03:31:27;11.40;92.50
2042;DHT22;1026;51.460;7.252;2023-03-30T03:33:53;11.40;92.50
2042;DHT22;1026;51.460;7.252;2023-03-30T03:36:19;11.50;92.50
2042;DHT22;1026;51.460;7.252;2023-03-30T03:38:45;11.50;92.40
2042;DHT22;1026;51.460;7.252;2023-03-30T03:41:10;11.50;92.40
2042;DHT22;1026;51.460;7.252;2023-03-30T03:43:36;11.50;92.50
2042;DHT22;1026;51.460;7.252;2023-03-30T03:46:05;11.40;92.50
2042;DHT22;1026;51.460;7.252;2023-03-30T03:48:31;11.50;92.50
2042;DHT22;1026;51.460;7.252;2023-03-30T03:50:57;11.50;92.50
2042;DHT22;1026;51.460;7.252;2023-03-30T03:53:25;11.50;92.50
2042;DHT22;1026;51.460;7.252;2023-03-30T03:55:52;11.50;92.50
2042;DHT22;1026;51.460;7.252;2023-03-30T03:58:18;11.50;92.50
2042;DHT22;1026;51.460;7.252;2023-03-30T04:00:45;11.50;92.50
2042;DHT22;1026;51.460;7.252;2023-03-30T04:03:11;11.50;92.50
2042;DHT22;1026;51.460;7.252;2023-03-30T04:05:37;11.40;92.40
2042;DHT22;1026;51.460;7.252;2023-03-30T04:08:03;11.50;92.50
2042;DHT22;1026;51.460;7.252;2023-03-30T04:10:29;11.50;92.50
2042;DHT22;1026;51.460;7.252;2023-03-30T04:12:56;11.40;92.40
2042;DHT22;1026;51.460;7.252;2023-03-30T04:15:23;11.50;92.50
2042;DHT22;1026;51.460;7.252;2023-03-30T04:17:48;11.50;92.50
2042;DHT22;1026;51.460;7.252;2023-03-30T04:20:15;11.40;92.50
2042;DHT22;1026;51.460;7.252;2023-03-30T04:22:41;11.40;92.50
2042;DHT22;1026;51.460;7.252;2023-03-30T04:25:09;11.50;92.50
2042;DHT22;1026;51.460;7.252;2023-03-30T04:27:40;11.50;92.50
2042;DHT22;1026;51.460;7.252;2023-03-30T04:30:08;11.40;92.50
2042;DHT22;1026;51.460;7.252;2023-03-30T04:32:34;11.50;92.50
2042;DHT22;1026;51.460;7.252;2023-03-30T04:35:04;11.50;92.50
2042;DHT22;1026;51.460;7.252;2023-03-30T04:37:37;11.50;92.50
2042;DHT22;1026;51.460;7.252;2023-03-30T04:40:08;11.60;92.60
2042;DHT22;1026;51.460;7.252;2023-03-30T04:42:34;11.60;92.60
2042;DHT22;1026;51.460;7.252;2023-03-30T04:45:05;11.60;92.60
2042;DHT22;1026;51.460;7.252;2023-03-30T04:47:31;11.50;92.50
2042;DHT22;1026;51.460;7.252;2023-03-30T04:49:57;11.60;92.50
2042;DHT22;1026;51.460;7.252;2023-03-30T04:52:23;11.60;92.50
2042;DHT22;1026;51.460;7.252;2023-03-30T04:54:48;11.60;92.50
2042;DHT22;1026;51.460;7.252;2023-03-30T04:57:15;11.60;92.50
2042;DHT22;1026;51.460;7.252;2023-03-30T04:59:41;11.60;92.50
2042;DHT22;1026;51.460;7.252;2023-03-30T05:02:08;11.60;92.50
2042;DHT22;1026;51.460;7.252;2023-03-30T05:04:39;11.60;92.60
2042;DHT22;1026;51.460;7.252;2023-03-30T05:07:06;11.70;92.60
2042;DHT22;1026;51.460;7.252;2023-03-30T05:09:32;11.60;92.50
2042;DHT22;1026;51.460;7.252;2023-03-30T05:11:58;11.60;92.60
2042;DHT22;1026;51.460;7.252;2023-03-30T05:14:23;11.60;92.60
2042;DHT22;1026;51.460;7.252;2023-03-30T05:16:49;11.60;92.60
2042;DHT22;1026;51.460;7.252;2023-03-30T05:19:16;11.70;92.60
2042;DHT22;1026;51.460;7.252;2023-03-30T05:21:41;11.60;92.60
2042;DHT22;1026;51.460;7.252;2023-03-30T05:24:07;11.60;92.50
2042;DHT22;1026;51.460;7.252;2023-03-30T05:26:33;11.60;92.60
2042;DHT22;1026;51.460;7.252;2023-03-30T05:28:59;11.60;92.60
2042;DHT22;1026;51.460;7.252;2023-03-30T05:31:25;11.70;92.60
2042;DHT22;1026;51.460;7.252;2023-03-30T05:33:50;11.70;92.70
2042;DHT22;1026;51.460;7.252;2023-03-30T05:36:17;11.70;92.60
2042;DHT22;1026;51.460;7.252;2023-03-30T05:38:43;11.50;92.60
2042;DHT22;1026;51.460;7.252;2023-03-30T05:41:09;11.70;92.60
2042;DHT22;1026;51.460;7.252;2023-03-30T05:43:35;11.60;92.60
2042;DHT22;1026;51.460;7.252;2023-03-30T05:46:01;11.70;92.70
2042;DHT22;1026;51.460;7.252;2023-03-30T05:48:32;11.70;92.60
2042;DHT22;1026;51.460;7.252;2023-03-30T05:51:00;11.70;92.70
2042;DHT22;1026;51.460;7.252;2023-03-30T05:53:27;11.70;92.70
2042;DHT22;1026;51.460;7.252;2023-03-30T05:55:52;11.60;92.60
2042;DHT22;1026;51.460;7.252;2023-03-30T05:58:18;11.70;92.70
2042;DHT22;1026;51.460;7.252;2023-03-30T06:00:44;11.70;92.70
2042;DHT22;1026;51.460;7.252;2023-03-30T06:03:13;11.70;92.60
2042;DHT22;1026;51.460;7.252;2023-03-30T06:05:39;11.60;92.70
2042;DHT22;1026;51.460;7.252;2023-03-30T06:08:06;11.70;92.70
2042;DHT22;1026;51.460;7.252;2023-03-30T06:10:33;11.70;92.70
2042;DHT22;1026;51.460;7.252;2023-03-30T06:12:59;11.70;92.70
2042;DHT22;1026;51.460;7.252;2023-03-30T06:15:25;11.70;92.70
2042;DHT22;1026;51.460;7.252;2023-03-30T06:17:52;11.70;92.70
2042;DHT22;1026;51.460;7.252;2023-03-30T06:20:18;11.70;92.70
2042;DHT22;1026;51.460;7.252;2023-03-30T06:22:46;11.60;92.70
2042;DHT22;1026;51.460;7.252;2023-03-30T06:25:12;11.60;92.70
2042;DHT22;1026;51.460;7.252;2023-03-30T06:27:38;11.70;92.70
2042;DHT22;1026;51.460;7.252;2023-03-30T06:30:05;11.70;92.70
2042;DHT22;1026;51.460;7.252;2023-03-30T06:32:33;11.70;92.80
2042;DHT22;1026;51.460;7.252;2023-03-30T06:34:59;11.70;92.80
2042;DHT22;1026;51.460;7.252;2023-03-30T06:37:31;11.70;92.80
2042;DHT22;1026;51.460;7.252;2023-03-30T06:39:57;11.70;92.80
2042;DHT22;1026;51.460;7.252;2023-03-30T06:42:25;11.80;92.80
2042;DHT22;1026;51.460;7.252;2023-03-30T06:44:51;11.60;92.80
2042;DHT22;1026;51.460;7.252;2023-03-30T06:47:17;11.70;92.80
2042;DHT22;1026;51.460;7.252;2023-03-30T06:49:44;11.70;92.80
2042;DHT22;1026;51.460;7.252;2023-03-30T06:52:09;11.70;92.80
2042;DHT22;1026;51.460;7.252;2023-03-30T06:54:37;11.80;92.90
2042;DHT22;1026;51.460;7.252;2023-03-30T06:57:03;11.80;93.10
2042;DHT22;1026;51.460;7.252;2023-03-30T06:59:30;11.80;92.70
2042;DHT22;1026;51.460;7.252;2023-03-30T07:01:58;11.80;92.60
2042;DHT22;1026;51.460;7.252;2023-03-30T07:04:24;11.90;92.70
2042;DHT22;1026;51.460;7.252;2023-03-30T07:06:50;11.90;92.70
2042;DHT22;1026;51.460;7.252;2023-03-30T07:09:17;12.10;93.40
2042;DHT22;1026;51.460;7.252;2023-03-30T07:11:43;12.30;93.00
2042;DHT22;1026;51.460;7.252;2023-03-30T07:14:10;12.30;92.90
2042;DHT22;1026;51.460;7.252;2023-03-30T07:16:40;12.50;92.80
2042;DHT22;1026;51.460;7.252;2023-03-30T07:19:06;12.60;92.70
2042;DHT22;1026;51.460;7.252;2023-03-30T07:21:33;12.70;92.30
2042;DHT22;1026;51.460;7.252;2023-03-30T07:24:00;12.70;92.10
2042;DHT22;1026;51.460;7.252;2023-03-30T07:26:29;12.60;92.20
2042;DHT22;1026;51.460;7.252;2023-03-30T07:28:55;12.50;92.40
2042;DHT22;1026;51.460;7.252;2023-03-30T07:31:28;12.40;92.60
2042;DHT22;1026;51.460;7.252;2023-03-30T07:33:57;12.30;92.70
2042;DHT22;1026;51.460;7.252;2023-03-30T07:36:22;12.20;92.80
2042;DHT22;1026;51.460;7.252;2023-03-30T07:38:48;12.30;93.00
2042;DHT22;1026;51.460;7.252;2023-03-30T07:41:23;12.20;92.90
2042;DHT22;1026;51.460;7.252;2023-03-30T07:43:49;12.20;93.00
2042;DHT22;1026;51.460;7.252;2023-03-30T07:46:15;12.10;93.00
2042;DHT22;1026;51.460;7.252;2023-03-30T07:48:41;12.20;93.00
2042;DHT22;1026;51.460;7.252;2023-03-30T07:51:10;12.20;93.00
2042;DHT22;1026;51.460;7.252;2023-03-30T07:53:36;12.20;93.00
2042;DHT22;1026;51.460;7.252;2023-03-30T07:56:03;12.20;93.00
2042;DHT22;1026;51.460;7.252;2023-03-30T07:58:29;12.20;93.00
2042;DHT22;1026;51.460;7.252;2023-03-30T08:00:54;12.20;93.00
2042;DHT22;1026;51.460;7.252;2023-03-30T08:03:20;12.20;92.90
2042;DHT22;1026;51.460;7.252;2023-03-30T08:05:55;12.10;92.90
2042;DHT22;1026;51.460;7.252;2023-03-30T08:08:26;12.20;93.00
2042;DHT22;1026;51.460;7.252;2023-03-30T08:10:52;12.20;93.00
2042;DHT22;1026;51.460;7.252;2023-03-30T08:13:18;12.20;93.10
2042;DHT22;1026;51.460;7.252;2023-03-30T08:15:44;12.20;93.00
2042;DHT22;1026;51.460;7.252;2023-03-30T08:18:11;12.10;92.90
2042;DHT22;1026;51.460;7.252;2023-03-30T08:20:40;12.10;93.00
2042;DHT22;1026;51.460;7.252;2023-03-30T08:23:08;12.20;93.10
2042;DHT22;1026;51.460;7.252;2023-03-30T08:25:34;12.20;93.10
2042;DHT22;1026;51.460;7.252;2023-03-30T08:27:59;12.30;93.10
2042;DHT22;1026;51.460;7.252;2023-03-30T08:30:27;12.20;93.00
2042;DHT22;1026;51.460;7.252;2023-03-30T08:32:53;12.30;93.10
2042;DHT22;1026;51.460;7.252;2023-03-30T08:35:19;12.30;93.20
2042;DHT22;1026;51.460;7.252;2023-03-30T08:37:46;12.20;93.00
2042;DHT22;1026;51.460;7.252;2023-03-30T08:40:13;12.30;93.10
2042;DHT22;1026;51.460;7.252;2023-03-30T08:43:06;12.20;92.90
2042;DHT22;1026;51.460;7.252;2023-03-30T08:45:36;12.20;93.00
2042;DHT22;1026;51.460;7.252;2023-03-30T08:48:05;12.30;93.00
2042;DHT22;1026;51.460;7.252;2023-03-30T08:50:38;12.30;93.00
2042;DHT22;1026;51.460;7.252;2023-03-30T08:53:06;12.30;92.80
2042;DHT22;1026;51.460;7.252;2023-03-30T09:06:53;12.40;93.00
2042;DHT22;1026;51.460;7.252;2023-03-30T09:09:22;12.50;92.80
2042;DHT22;1026;51.460;7.252;2023-03-30T09:11:58;12.60;92.50
2042;DHT22;1026;51.460;7.252;2023-03-30T09:14:36;12.60;92.50
2042;DHT22;1026;51.460;7.252;2023-03-30T09:17:10;12.60;92.50
2042;DHT22;1026;51.460;7.252;2023-03-30T09:19:55;12.60;92.60
2042;DHT22;1026;51.460;7.252;2023-03-30T09:22:28;12.60;92.70
2042;DHT22;1026;51.460;7.252;2023-03-30T09:25:38;12.60;92.70
2042;DHT22;1026;51.460;7.252;2023-03-30T09:28:24;12.60;92.70
2042;DHT22;1026;51.460;7.252;2023-03-30T09:31:34;12.60;92.80
2042;DHT22;1026;51.460;7.252;2023-03-30T09:34:05;12.60;92.70
2042;DHT22;1026;51.460;7.252;2023-03-30T09:39:36;12.60;92.70
2042;DHT22;1026;51.460;7.252;2023-03-30T09:42:27;12.60;92.70
2042;DHT22;1026;51.460;7.252;2023-03-30T09:45:07;12.60;92.60
2042;DHT22;1026;51.460;7.252;2023-03-30T09:47:37;12.70;92.60
2042;DHT22;1026;51.460;7.252;2023-03-30T09:50:10;12.80;92.40
2042;DHT22;1026;51.460;7.252;2023-03-30T09:52:38;12.80;92.40
2042;DHT22;1026;51.460;7.252;2023-03-30T09:57:47;12.80;92.50
2042;DHT22;1026;51.460;7.252;2023-03-30T10:00:29;12.80;92.50
2042;DHT22;1026;51.460;7.252;2023-03-30T10:03:00;12.80;92.50
2042;DHT22;1026;51.460;7.252;2023-03-30T10:05:37;12.80;92.50
2042;DHT22;1026;51.460;7.252;2023-03-30T10:08:05;12.70;92.40
2042;DHT22;1026;51.460;7.252;2023-03-30T10:10:42;12.80;92.50
2042;DHT22;1026;51.460;7.252;2023-03-30T10:13:16;12.80;92.40
2042;DHT22;1026;51.460;7.252;2023-03-30T10:15:46;12.80;92.50
2042;DHT22;1026;51.460;7.252;2023-03-30T10:18:38;12.80;92.40
2042;DHT22;1026;51.460;7.252;2023-03-30T10:24:26;12.80;92.40
2042;DHT22;1026;51.460;7.252;2023-03-30T10:27:25;12.80;92.40
2042;DHT22;1026;51.460;7.252;2023-03-30T10:29:52;12.80;92.70
2042;DHT22;1026;51.460;7.252;2023-03-30T10:32:22;12.70;92.80
2042;DHT22;1026;51.460;7.252;2023-03-30T10:34:55;12.70;92.90
2042;DHT22;1026;51.460;7.252;2023-03-30T10:37:37;12.70;92.80
2042;DHT22;1026;51.460;7.252;2023-03-30T10:40:21;12.80;93.40
2042;DHT22;1026;51.460;7.252;2023-03-30T10:42:53;12.70;93.30
2042;DHT22;1026;51.460;7.252;2023-03-30T10:48:11;12.70;92.90
2042;DHT22;1026;51.460;7.252;2023-03-30T10:56:45;12.70;93.10
2042;DHT22;1026;51.460;7.252;2023-03-30T11:02:40;12.70;92.90
2042;DHT22;1026;51.460;7.252;2023-03-30T11:05:31;12.70;93.10
2042;DHT22;1026;51.460;7.252;2023-03-30T11:08:19;12.70;93.30
2042;DHT22;1026;51.460;7.252;2023-03-30T11:10:48;12.70;93.10
2042;DHT22;1026;51.460;7.252;2023-03-30T11:13:34;12.70;93.20
2042;DHT22;1026;51.460;7.252;2023-03-30T11:16:20;12.70;93.10
2042;DHT22;1026;51.460;7.252;2023-03-30T11:18:56;12.80;93.40
2042;DHT22;1026;51.460;7.252;2023-03-30T11:21:40;12.70;93.20
2042;DHT22;1026;51.460;7.252;2023-03-30T11:24:26;12.80;93.30
2042;DHT22;1026;51.460;7.252;2023-03-30T11:27:09;12.80;93.30
2042;DHT22;1026;51.460;7.252;2023-03-30T11:29:45;12.80;93.40
2042;DHT22;1026;51.460;7.252;2023-03-30T11:35:21;12.80;93.40
2042;DHT22;1026;51.460;7.252;2023-03-30T11:40:27;12.80;93.50
2042;DHT22;1026;51.460;7.252;2023-03-30T11:42:54;12.80;93.60
2042;DHT22;1026;51.460;7.252;2023-03-30T11:53:59;12.80;93.50
2042;DHT22;1026;51.460;7.252;2023-03-30T11:56:38;12.90;93.50
2042;DHT22;1026;51.460;7.252;2023-03-30T11:59:19;12.90;93.50
2042;DHT22;1026;51.460;7.252;2023-03-30T12:02:03;12.80;93.30
2042;DHT22;1026;51.460;7.252;2023-03-30T12:10:01;12.90;93.40
2042;DHT22;1026;51.460;7.252;2023-03-30T12:12:33;12.90;93.70
2042;DHT22;1026;51.460;7.252;2023-03-30T12:17:50;13.00;93.20
2042;DHT22;1026;51.460;7.252;2023-03-30T12:20:29;13.00;93.20
2042;DHT22;1026;51.460;7.252;2023-03-30T12:23:03;13.00;93.20
2042;DHT22;1026;51.460;7.252;2023-03-30T12:28:47;13.00;93.10
2042;DHT22;1026;51.460;7.252;2023-03-30T12:31:22;12.90;93.00
2042;DHT22;1026;51.460;7.252;2023-03-30T12:33:50;12.90;93.30
2042;DHT22;1026;51.460;7.252;2023-03-30T12:36:39;13.00;93.40
2042;DHT22;1026;51.460;7.252;2023-03-30T12:39:14;13.00;93.30
2042;DHT22;1026;51.460;7.252;2023-03-30T12:41:47;13.00;93.30
2042;DHT22;1026;51.460;7.252;2023-03-30T12:55:37;13.00;94.20
2042;DHT22;1026;51.460;7.252;2023-03-30T13:01:03;13.00;94.10
2042;DHT22;1026;51.460;7.252;2023-03-30T13:06:04;13.10;94.00
2042;DHT22;1026;51.460;7.252;2023-03-30T13:08:35;13.00;93.90
2042;DHT22;1026;51.460;7.252;2023-03-30T13:11:08;12.90;93.70
2042;DHT22;1026;51.460;7.252;2023-03-30T13:13:52;13.00;93.80
2042;DHT22;1026;51.460;7.252;2023-03-30T13:22:23;13.00;94.10
2042;DHT22;1026;51.460;7.252;2023-03-30T13:24:57;13.00;94.00
2042;DHT22;1026;51.460;7.252;2023-03-30T13:27:40;13.00;94.10
2042;DHT22;1026;51.460;7.252;2023-03-30T13:33:00;12.90;94.10
2042;DHT22;1026;51.460;7.252;2023-03-30T13:38:30;12.90;94.10
2042;DHT22;1026;51.460;7.252;2023-03-30T13:41:18;13.00;94.60
2042;DHT22;1026;51.460;7.252;2023-03-30T13:43:55;13.00;94.50
2042;DHT22;1026;51.460;7.252;2023-03-30T13:49:17;12.90;94.90
2042;DHT22;1026;51.460;7.252;2023-03-30T13:51:45;13.00;94.70
2042;DHT22;1026;51.460;7.252;2023-03-30T13:54:16;13.00;94.80
2042;DHT22;1026;51.460;7.252;2023-03-30T13:56:47;13.00;95.00
2042;DHT22;1026;51.460;7.252;2023-03-30T13:59:18;13.00;94.90
2042;DHT22;1026;51.460;7.252;2023-03-30T14:01:51;12.90;94.70
2042;DHT22;1026;51.460;7.252;2023-03-30T14:04:18;12.90;94.50
2042;DHT22;1026;51.460;7.252;2023-03-30T14:06:46;13.00;94.60
2042;DHT22;1026;51.460;7.252;2023-03-30T14:09:21;13.00;94.50
2042;DHT22;1026;51.460;7.252;2023-03-30T14:11:49;13.00;94.60
2042;DHT22;1026;51.460;7.252;2023-03-30T14:16:45;13.00;94.40
2042;DHT22;1026;51.460;7.252;2023-03-30T14:19:16;13.00;94.10
2042;DHT22;1026;51.460;7.252;2023-03-30T14:21:45;13.00;94.30
2042;DHT22;1026;51.460;7.252;2023-03-30T14:24:15;13.00;94.30
2042;DHT22;1026;51.460;7.252;2023-03-30T14:26:42;13.00;94.30
2042;DHT22;1026;51.460;7.252;2023-03-30T14:29:16;13.00;93.90
2042;DHT22;1026;51.460;7.252;2023-03-30T14:31:44;13.00;93.80
2042;DHT22;1026;51.460;7.252;2023-03-30T14:34:26;13.00;93.80
2042;DHT22;1026;51.460;7.252;2023-03-30T14:36:54;13.10;94.20
2042;DHT22;1026;51.460;7.252;2023-03-30T14:39:23;13.10;94.20
2042;DHT22;1026;51.460;7.252;2023-03-30T14:41:49;13.10;94.10
2042;DHT22;1026;51.460;7.252;2023-03-30T14:44:18;13.10;93.90
2042;DHT22;1026;51.460;7.252;2023-03-30T14:46:48;13.00;93.80
2042;DHT22;1026;51.460;7.252;2023-03-30T14:49:19;13.10;93.90
2042;DHT22;1026;51.460;7.252;2023-03-30T14:51:47;13.10;93.80
2042;DHT22;1026;51.460;7.252;2023-03-30T14:54:19;13.10;93.70
2042;DHT22;1026;51.460;7.252;2023-03-30T14:56:58;13.10;93.70
2042;DHT22;1026;51.460;7.252;2023-03-30T14:59:31;13.10;93.60
2042;DHT22;1026;51.460;7.252;2023-03-30T15:01:58;13.10;93.70
2042;DHT22;1026;51.460;7.252;2023-03-30T15:04:27;13.10;93.80
2042;DHT22;1026;51.460;7.252;2023-03-30T15:06:55;13.10;93.70
2042;DHT22;1026;51.460;7.252;2023-03-30T15:09:23;13.10;93.70
2042;DHT22;1026;51.460;7.252;2023-03-30T15:11:56;13.10;93.90
2042;DHT22;1026;51.460;7.252;2023-03-30T15:14:24;13.10;94.00
2042;DHT22;1026;51.460;7.252;2023-03-30T15:16:53;13.10;94.10
2042;DHT22;1026;51.460;7.252;2023-03-30T15:19:35;13.10;94.60
2042;DHT22;1026;51.460;7.252;2023-03-30T15:22:06;13.00;94.40
2042;DHT22;1026;51.460;7.252;2023-03-30T15:24:37;13.10;94.70
2042;DHT22;1026;51.460;7.252;2023-03-30T15:27:06;13.00;94.70
2042;DHT22;1026;51.460;7.252;2023-03-30T15:29:32;13.10;94.60
2042;DHT22;1026;51.460;7.252;2023-03-30T15:32:19;13.10;94.60
2042;DHT22;1026;51.460;7.252;2023-03-30T15:35:05;13.00;94.80
2042;DHT22;1026;51.460;7.252;2023-03-30T15:37:32;13.10;94.90
2042;DHT22;1026;51.460;7.252;2023-03-30T15:40:03;13.10;94.70
2042;DHT22;1026;51.460;7.252;2023-03-30T15:42:47;13.10;94.80
2042;DHT22;1026;51.460;7.252;2023-03-30T15:45:13;13.10;94.60
2042;DHT22;1026;51.460;7.252;2023-03-30T15:47:40;13.00;94.50
2042;DHT22;1026;51.460;7.252;2023-03-30T15:50:10;13.10;94.40
2042;DHT22;1026;51.460;7.252;2023-03-30T15:52:42;13.00;94.30
2042;DHT22;1026;51.460;7.252;2023-03-30T15:55:25;13.10;94.50
2042;DHT22;1026;51.460;7.252;2023-03-30T15:57:52;13.00;94.80
2042;DHT22;1026;51.460;7.252;2023-03-30T16:00:20;13.00;95.10
2042;DHT22;1026;51.460;7.252;2023-03-30T16:02:48;13.00;95.40
2042;DHT22;1026;51.460;7.252;2023-03-30T16:05:23;13.00;95.10
2042;DHT22;1026;51.460;7.252;2023-03-30T16:07:49;13.00;94.80
2042;DHT22;1026;51.460;7.252;2023-03-30T16:10:17;13.00;95.40
2042;DHT22;1026;51.460;7.252;2023-03-30T16:12:46;13.00;95.80
2042;DHT22;1026;51.460;7.252;2023-03-30T16:15:15;13.00;95.20
2042;DHT22;1026;51.460;7.252;2023-03-30T16:17:48;12.90;95.10
2042;DHT22;1026;51.460;7.252;2023-03-30T16:20:19;12.90;97.20
2042;DHT22;1026;51.460;7.252;2023-03-30T16:22:45;12.90;97.70
2042;DHT22;1026;51.460;7.252;2023-03-30T16:25:12;12.90;98.60
2042;DHT22;1026;51.460;7.252;2023-03-30T16:27:39;12.70;98.30
2042;DHT22;1026;51.460;7.252;2023-03-30T16:30:22;12.70;98.30
2042;DHT22;1026;51.460;7.252;2023-03-30T16:32:50;12.70;97.80
2042;DHT22;1026;51.460;7.252;2023-03-30T16:35:16;12.90;98.00
2042;DHT22;1026;51.460;7.252;2023-03-30T16:37:42;12.90;97.80
2042;DHT22;1026;51.460;7.252;2023-03-30T16:40:21;12.90;97.70
2042;DHT22;1026;51.460;7.252;2023-03-30T16:42:51;12.90;97.50
2042;DHT22;1026;51.460;7.252;2023-03-30T16:45:16;12.90;97.40
2042;DHT22;1026;51.460;7.252;2023-03-30T16:47:42;12.90;97.20
2042;DHT22;1026;51.460;7.252;2023-03-30T16:50:17;12.90;97.30
2042;DHT22;1026;51.460;7.252;2023-03-30T16:52:47;12.90;97.00
2042;DHT22;1026;51.460;7.252;2023-03-30T16:55:17;12.80;97.10
2042;DHT22;1026;51.460;7.252;2023-03-30T16:57:43;12.80;96.80
2042;DHT22;1026;51.460;7.252;2023-03-30T17:00:14;12.90;96.90
2042;DHT22;1026;51.460;7.252;2023-03-30T17:02:41;12.90;96.90
2042;DHT22;1026;51.460;7.252;2023-03-30T17:05:06;12.90;96.80
2042;DHT22;1026;51.460;7.252;2023-03-30T17:07:32;12.90;96.80
2042;DHT22;1026;51.460;7.252;2023-03-30T17:10:11;12.90;96.60
2042;DHT22;1026;51.460;7.252;2023-03-30T17:12:38;12.90;96.70
2042;DHT22;1026;51.460;7.252;2023-03-30T17:15:03;12.80;96.80
2042;DHT22;1026;51.460;7.252;2023-03-30T17:17:29;12.90;96.50
2042;DHT22;1026;51.460;7.252;2023-03-30T17:19:55;12.80;96.40
2042;DHT22;1026;51.460;7.252;2023-03-30T17:22:22;12.80;96.40
2042;DHT22;1026;51.460;7.252;2023-03-30T17:24:48;12.80;96.20
2042;DHT22;1026;51.460;7.252;2023-03-30T17:27:14;12.80;96.40
2042;DHT22;1026;51.460;7.252;2023-03-30T17:29:40;12.80;96.10
2042;DHT22;1026;51.460;7.252;2023-03-30T17:32:10;12.80;96.00
2042;DHT22;1026;51.460;7.252;2023-03-30T17:34:36;12.80;96.40
2042;DHT22;1026;51.460;7.252;2023-03-30T17:37:02;12.80;96.20
2042;DHT22;1026;51.460;7.252;2023-03-30T17:39:28;12.70;95.90
2042;DHT22;1026;51.460;7.252;2023-03-30T17:41:56;12.80;96.40
2042;DHT22;1026;51.460;7.252;2023-03-30T17:44:24;12.80;95.90
2042;DHT22;1026;51.460;7.252;2023-03-30T17:46:50;12.80;96.00
2042;DHT22;1026;51.460;7.252;2023-03-30T17:49:16;12.70;96.00
2042;DHT22;1026;51.460;7.252;2023-03-30T17:51:42;12.70;96.20
2042;DHT22;1026;51.460;7.252;2023-03-30T17:54:13;12.70;96.10
2042;DHT22;1026;51.460;7.252;2023-03-30T17:56:39;12.60;95.70
2042;DHT22;1026;51.460;7.252;2023-03-30T17:59:09;12.70;95.80
2042;DHT22;1026;51.460;7.252;2023-03-30T18:01:35;12.70;95.50
2042;DHT22;1026;51.460;7.252;2023-03-30T18:04:01;12.70;95.70
2042;DHT22;1026;51.460;7.252;2023-03-30T18:06:26;12.70;96.00
2042;DHT22;1026;51.460;7.252;2023-03-30T18:08:53;12.70;95.70
2042;DHT22;1026;51.460;7.252;2023-03-30T18:11:19;12.70;95.70
2042;DHT22;1026;51.460;7.252;2023-03-30T18:13:45;12.70;95.70
2042;DHT22;1026;51.460;7.252;2023-03-30T18:16:11;12.60;95.60
2042;DHT22;1026;51.460;7.252;2023-03-30T18:18:37;12.60;95.50
2042;DHT22;1026;51.460;7.252;2023-03-30T18:21:03;12.50;95.50